x

Buoy A01 - Mass. Bay/stellwagen (44029) Wave Buoy

1:04pm - Mon 16th Jan 2017 All times are EST. -5 hours from GMT.

  • Sig Wave height 2.6ft
  • Peak Period 4s
  • Wind
    22mph, 25mph gusts
  • Sea Temp 44°f
  • Air Temp 38°f
  • Sea Pressure 1025.4mb
  • Buoy A01 - Mass. Bay/stellwagen
  • Buoy A01 - Mass. Bay/stellwagen

More Historic Weather Station data

Upgrade to MSW Pro to gain access to the past 30 days of data for over 8000 Wavebouys and Weather Stations around the globe.

Join Pro

Comparision Forecast

View Surf forecast
   
Mon 01/16 1:04pm 2.5ft 4s 22 25 mph 1025.4mb 44f 38f
12:04pm 2ft 3s 18 22 mph 1026.5mb 44f 37f
11:04am 2.5ft 3s 18 22 mph 1028.2mb 44f 35f
10:04am 1.6ft 5s 16 20 mph 1029.7mb 44f 35f
9:04am 1ft 5s 11 18 mph 1029.6mb 44f 34f
8:04am 1ft 5s 7 11 mph 1030mb 44f 32f
7:04am 1ft 5s 7 9 mph 1029.9mb 44f 31f
6:04am 0.7ft  -  4 7 mph 1029.9mb 44f 30f
5:04am 1ft 5s 7 9 mph 1029.8mb 44f 31f
4:04am 1ft 5s 7 9 mph 1029.7mb 44f 31f
3:04am 1ft 11s 9 11 mph 1029.7mb 44f 31f
2:04am  -   -  13 16 mph 1030mb 44f 32f
1:04am 1.3ft 4s 11 13 mph 1029mb 44f 33f
12:04am 2ft 4s 11 13 mph 1028.7mb 44f 33f
Sun 01/15 11:04pm 2.5ft 4s 11 13 mph 1028.9mb 44f 34f
10:04pm 2.5ft 5s 13 16 mph 1028.8mb 44f 34f
9:04pm 1.6ft 4s 13 16 mph 1028.7mb 44f 34f
8:04pm 1.3ft 4s 16 18 mph 1028.2mb 44f 34f
7:04pm 1ft 4s 16 20 mph 1027.6mb 44f 35f
6:04pm 1ft 2s 16 20 mph 1027.1mb 44f 35f
5:04pm 1.6ft 3s 13 18 mph 1026.4mb 44f 35f
4:04pm 2.5ft 3s 18 22 mph 1025.4mb 44f 36f
3:04pm 1.6ft 3s 18 20 mph 1024.5mb 44f 36f
2:04pm 2.5ft 3s 18 22 mph 1024mb 44f 35f
1:04pm 2.5ft 3s 20 25 mph 1023.7mb 44f 34f
12:04pm 2.5ft 3s 20 25 mph 1024.2mb 45f 33f
11:04am 3.5ft 3s 22 29 mph 1024.6mb 45f 33f
10:04am 3ft 3s 25 31 mph 1025mb 45f 32f
9:04am 2ft 3s 22 27 mph 1024.7mb 45f 32f
8:04am 2ft 3s 18 20 mph 1024.4mb 45f 31f
7:04am 3ft 3s 20 25 mph 1023.5mb 45f 32f
6:04am 2.5ft 3s 18 20 mph 1022.9mb 45f 31f
5:04am 2ft 3s 18 20 mph 1022.5mb 45f 32f
4:04am 2ft 3s 18 22 mph 1022.2mb 45f 33f
3:04am  -   -  18 22 mph 1022.6mb 45f 33f
2:04am 3.5ft 3s 18 20 mph 1023mb 45f 33f
1:04am 2.5ft 4s 18 20 mph 1022.9mb 45f 34f
12:04am 3ft 4s 16 20 mph 1023.8mb 45f 34f
Sat 01/14 11:04pm 3.5ft 4s 18 22 mph 1024.7mb 45f 34f
10:04pm 3.5ft 4s 20 25 mph 1026mb 45f 33f
9:04pm  -   -  20 25 mph 1027mb 45f 33f
8:04pm 2.5ft 4s 18 22 mph 1027.7mb 45f 32f
7:04pm  -   -  18 22 mph 1028.6mb 45f 32f
6:04pm 2.5ft 3s 16 20 mph 1029.4mb 45f 32f
5:04pm 2.5ft 10s 16 20 mph 1030.5mb 45f 30f
4:04pm 2ft 11s 11 16 mph 1031.6mb 45f 28f
3:04pm 2ft 11s 9 11 mph 1032.1mb 45f 29f
2:04pm 2ft 11s 7 11 mph 1033.2mb 45f 26f
1:04pm 1.6ft 11s 2 4 mph 1034mb 45f 26f
12:04pm 2ft 4s 2 7 mph 1035.6mb 45f 24f
11:04am 1.3ft 11s 9 11 mph 1037.4mb 45f 22f
10:04am 1.6ft 5s 9 13 mph 1038.8mb 45f 21f
9:04am 2.5ft 8s 13 18 mph 1039.3mb 45f 20f
8:04am 2ft 3s 16 20 mph 1039.3mb 45f 20f
7:04am 2ft 5s 13 20 mph 1039.4mb 45f 21f
6:04am 2.5ft 11s 16 22 mph 1039.2mb 45f 22f
5:04am 2.5ft 3s 18 25 mph 1039mb 45f 22f
4:04am 2.5ft 5s 16 22 mph 1039.1mb 45f 23f
3:04am 3ft 6s 18 25 mph 1039mb 45f 23f
2:04am 3ft 3s 22 29 mph 1038.4mb 45f 25f
1:04am 3.5ft 11s 22 29 mph 1037.8mb 45f 26f
12:04am 3.5ft 5s 25 31 mph 1037.7mb 45f 27f
Fri 01/13 11:04pm 4.5ft 6s 22 27 mph 1037.4mb 45f 29f
10:04pm 4ft 6s 22 29 mph 1036.7mb 45f 31f
9:04pm 3.5ft 6s 22 29 mph 1036.1mb 45f 32f
8:04pm 4.5ft 5s 22 27 mph 1034.8mb 45f 34f
7:04pm 3ft 8s 25 29 mph 1033.5mb 45f 36f
6:04pm 3ft 11s 16 20 mph 1032.3mb 45f 39f
5:04pm 3.5ft 3s 18 20 mph 1030.7mb 45f 40f
4:04pm 3.5ft 3s 22 27 mph 1029.1mb 45f 42f
3:04pm 3.5ft 4s 22 27 mph 1027.6mb 45f 43f
2:04pm 3.5ft 4s 22 29 mph 1025.9mb 45f 43f
1:04pm 3.5ft 4s 25 29 mph 1024.4mb 45f 44f
12:04pm 4ft 4s 25 34 mph 1023.6mb 45f 45f
11:04am 4.5ft 4s 22 25 mph 1023.8mb 45f 45f
10:04am 3.5ft 4s 20 27 mph 1023.6mb 45f 44f
9:04am 4.5ft 4s 20 25 mph 1022.7mb 45f 44f
8:04am 4ft 4s 20 22 mph 1022.2mb 45f 44f
7:04am 3.5ft 8s 22 27 mph 1020.8mb 45f 46f
6:04am  -   -  22 29 mph 1018.8mb 45f 48f
5:04am 3.5ft 11s 20 25 mph 1017.4mb 45f 50f
4:04am 3.5ft 10s 9 11 mph 1016.1mb 45f 49f
3:04am 4ft 10s 9 11 mph 1015.7mb 45f 49f
2:04am 4ft 11s 9 11 mph 1014.7mb 45f 49f
1:04am 4.5ft 10s 11 13 mph 1013.8mb 45f 49f
12:04am 4.5ft 4s 13 16 mph 1013.3mb 45f 50f
Thu 01/12 11:04pm 3.5ft 9s 16 18 mph 1012.7mb 45f 50f
10:04pm 3ft 10s 18 20 mph 1012.5mb 45f 51f
9:04pm 3ft 7s 18 20 mph 1012.2mb 45f 50f
8:04pm 3ft 6s 16 18 mph 1013.8mb 45f 49f